sensor_id;sensor_type;location;lat;lon;timestamp;temperature;humidity
37158;DHT22;23050;51.776;22.638;2022-09-03T00:00:08;8.50;99.90
37158;DHT22;23050;51.776;22.638;2022-09-03T00:08:14;8.40;99.90
37158;DHT22;23050;51.776;22.638;2022-09-03T00:13:31;9.10;99.90
37158;DHT22;23050;51.776;22.638;2022-09-03T00:15:59;8.20;99.90
37158;DHT22;23050;51.776;22.638;2022-09-03T00:18:31;8.20;99.90
37158;DHT22;23050;51.776;22.638;2022-09-03T00:21:07;8.20;99.90
37158;DHT22;23050;51.776;22.638;2022-09-03T00:23:37;8.20;99.90
37158;DHT22;23050;51.776;22.638;2022-09-03T00:28:43;8.10;99.90
37158;DHT22;23050;51.776;22.638;2022-09-03T00:31:13;8.10;99.90
37158;DHT22;23050;51.776;22.638;2022-09-03T00:33:44;8.10;99.90
37158;DHT22;23050;51.776;22.638;2022-09-03T00:36:13;8.20;99.90
37158;DHT22;23050;51.776;22.638;2022-09-03T00:38:39;8.70;99.90
37158;DHT22;23050;51.776;22.638;2022-09-03T00:44:11;8.00;99.90
37158;DHT22;23050;51.776;22.638;2022-09-03T00:46:48;7.90;99.90
37158;DHT22;23050;51.776;22.638;2022-09-03T00:54:48;7.90;99.90
37158;DHT22;23050;51.776;22.638;2022-09-03T01:00:15;7.80;99.90
37158;DHT22;23050;51.776;22.638;2022-09-03T01:03:05;7.80;99.90
37158;DHT22;23050;51.776;22.638;2022-09-03T01:14:38;7.80;99.90
37158;DHT22;23050;51.776;22.638;2022-09-03T01:20:11;7.60;99.90
37158;DHT22;23050;51.776;22.638;2022-09-03T01:26:04;7.60;99.90
37158;DHT22;23050;51.776;22.638;2022-09-03T01:31:35;7.50;99.90
37158;DHT22;23050;51.776;22.638;2022-09-03T01:42:29;7.50;99.90
37158;DHT22;23050;51.776;22.638;2022-09-03T01:45:25;9.80;99.90
37158;DHT22;23050;51.776;22.638;2022-09-03T01:48:07;7.50;99.90
37158;DHT22;23050;51.776;22.638;2022-09-03T01:58:55;7.40;99.90
37158;DHT22;23050;51.776;22.638;2022-09-03T02:01:31;7.40;99.90
37158;DHT22;23050;51.776;22.638;2022-09-03T02:03:58;7.30;99.90
37158;DHT22;23050;51.776;22.638;2022-09-03T02:06:25;7.30;99.90
37158;DHT22;23050;51.776;22.638;2022-09-03T02:08:52;7.30;99.90
37158;DHT22;23050;51.776;22.638;2022-09-03T02:11:18;7.20;99.90
37158;DHT22;23050;51.776;22.638;2022-09-03T02:13:48;7.20;99.90
37158;DHT22;23050;51.776;22.638;2022-09-03T02:16:18;9.30;99.90
37158;DHT22;23050;51.776;22.638;2022-09-03T02:18:55;7.20;99.90
37158;DHT22;23050;51.776;22.638;2022-09-03T02:21:24;7.10;99.90
37158;DHT22;23050;51.776;22.638;2022-09-03T02:23:50;7.10;99.90
37158;DHT22;23050;51.776;22.638;2022-09-03T02:26:20;7.10;99.90
37158;DHT22;23050;51.776;22.638;2022-09-03T02:28:47;7.00;99.90
37158;DHT22;23050;51.776;22.638;2022-09-03T02:31:14;7.00;99.90
37158;DHT22;23050;51.776;22.638;2022-09-03T02:33:42;6.90;99.90
37158;DHT22;23050;51.776;22.638;2022-09-03T02:36:10;6.90;99.90
37158;DHT22;23050;51.776;22.638;2022-09-03T02:38:36;9.20;99.90
37158;DHT22;23050;51.776;22.638;2022-09-03T02:41:02;6.90;99.90
37158;DHT22;23050;51.776;22.638;2022-09-03T02:46:21;6.80;99.90
37158;DHT22;23050;51.776;22.638;2022-09-03T02:48:48;8.10;99.90
37158;DHT22;23050;51.776;22.638;2022-09-03T02:51:14;6.80;99.90
37158;DHT22;23050;51.776;22.638;2022-09-03T02:53:40;6.80;99.90
37158;DHT22;23050;51.776;22.638;2022-09-03T02:56:06;6.80;99.90
37158;DHT22;23050;51.776;22.638;2022-09-03T02:58:31;6.80;99.90
37158;DHT22;23050;51.776;22.638;2022-09-03T03:00:57;6.80;99.90
37158;DHT22;23050;51.776;22.638;2022-09-03T03:03:23;6.80;99.90
37158;DHT22;23050;51.776;22.638;2022-09-03T03:05:51;6.70;99.90
37158;DHT22;23050;51.776;22.638;2022-09-03T03:08:18;6.70;99.90
37158;DHT22;23050;51.776;22.638;2022-09-03T03:10:51;6.60;99.90
37158;DHT22;23050;51.776;22.638;2022-09-03T03:13:17;6.70;99.90
37158;DHT22;23050;51.776;22.638;2022-09-03T03:15:43;8.60;99.90
37158;DHT22;23050;51.776;22.638;2022-09-03T03:18:10;8.10;99.90
37158;DHT22;23050;51.776;22.638;2022-09-03T03:20:39;8.40;99.90
37158;DHT22;23050;51.776;22.638;2022-09-03T03:23:05;6.50;99.90
37158;DHT22;23050;51.776;22.638;2022-09-03T03:25:36;6.50;99.90
37158;DHT22;23050;51.776;22.638;2022-09-03T03:28:02;7.80;99.90
37158;DHT22;23050;51.776;22.638;2022-09-03T03:30:30;7.90;99.90
37158;DHT22;23050;51.776;22.638;2022-09-03T03:32:56;6.50;99.90
37158;DHT22;23050;51.776;22.638;2022-09-03T03:35:22;8.50;99.90
37158;DHT22;23050;51.776;22.638;2022-09-03T03:37:48;6.50;99.90
37158;DHT22;23050;51.776;22.638;2022-09-03T03:40:13;6.40;99.90
37158;DHT22;23050;51.776;22.638;2022-09-03T03:42:40;6.50;99.90
37158;DHT22;23050;51.776;22.638;2022-09-03T03:45:06;8.50;99.90
37158;DHT22;23050;51.776;22.638;2022-09-03T03:47:32;6.40;99.90
37158;DHT22;23050;51.776;22.638;2022-09-03T03:49:59;8.40;99.90
37158;DHT22;23050;51.776;22.638;2022-09-03T03:52:25;6.40;99.90
37158;DHT22;23050;51.776;22.638;2022-09-03T03:54:52;6.40;99.90
37158;DHT22;23050;51.776;22.638;2022-09-03T03:57:19;6.40;99.90
37158;DHT22;23050;51.776;22.638;2022-09-03T03:59:46;6.40;99.90
37158;DHT22;23050;51.776;22.638;2022-09-03T04:02:13;6.40;99.90
37158;DHT22;23050;51.776;22.638;2022-09-03T04:04:39;6.40;99.90
37158;DHT22;23050;51.776;22.638;2022-09-03T04:07:05;6.50;99.90
37158;DHT22;23050;51.776;22.638;2022-09-03T04:09:30;6.50;99.90
37158;DHT22;23050;51.776;22.638;2022-09-03T04:11:56;8.40;99.90
37158;DHT22;23050;51.776;22.638;2022-09-03T04:14:23;6.50;99.90
37158;DHT22;23050;51.776;22.638;2022-09-03T04:16:49;6.60;99.90
37158;DHT22;23050;51.776;22.638;2022-09-03T04:19:16;7.70;99.90
37158;DHT22;23050;51.776;22.638;2022-09-03T04:21:42;7.90;99.90
37158;DHT22;23050;51.776;22.638;2022-09-03T04:24:08;6.70;99.90
37158;DHT22;23050;51.776;22.638;2022-09-03T04:26:35;8.70;99.90
37158;DHT22;23050;51.776;22.638;2022-09-03T04:29:06;6.80;99.90
37158;DHT22;23050;51.776;22.638;2022-09-03T04:31:32;6.90;99.90
37158;DHT22;23050;51.776;22.638;2022-09-03T04:33:58;6.90;99.90
37158;DHT22;23050;51.776;22.638;2022-09-03T04:36:26;8.20;99.90
37158;DHT22;23050;51.776;22.638;2022-09-03T04:38:53;7.10;99.90
37158;DHT22;23050;51.776;22.638;2022-09-03T04:41:22;7.20;99.90
37158;DHT22;23050;51.776;22.638;2022-09-03T04:43:50;7.20;99.90
37158;DHT22;23050;51.776;22.638;2022-09-03T04:46:16;7.40;99.90
37158;DHT22;23050;51.776;22.638;2022-09-03T04:48:42;9.20;99.90
37158;DHT22;23050;51.776;22.638;2022-09-03T04:51:10;8.10;99.90
37158;DHT22;23050;51.776;22.638;2022-09-03T04:53:40;8.30;99.90
37158;DHT22;23050;51.776;22.638;2022-09-03T04:58:42;11.80;99.90
37158;DHT22;23050;51.776;22.638;2022-09-03T05:01:19;12.30;99.90
37158;DHT22;23050;51.776;22.638;2022-09-03T05:03:46;13.20;99.90
37158;DHT22;23050;51.776;22.638;2022-09-03T05:06:12;14.40;99.90
37158;DHT22;23050;51.776;22.638;2022-09-03T05:08:38;14.80;99.90
37158;DHT22;23050;51.776;22.638;2022-09-03T05:11:06;15.10;97.40
37158;DHT22;23050;51.776;22.638;2022-09-03T05:13:33;16.00;87.90
37158;DHT22;23050;51.776;22.638;2022-09-03T05:16:04;16.30;82.60
37158;DHT22;23050;51.776;22.638;2022-09-03T05:18:31;16.30;74.60
37158;DHT22;23050;51.776;22.638;2022-09-03T05:21:02;16.60;68.70
37158;DHT22;23050;51.776;22.638;2022-09-03T05:23:29;17.10;55.00
37158;DHT22;23050;51.776;22.638;2022-09-03T05:25:59;17.10;53.30
37158;DHT22;23050;51.776;22.638;2022-09-03T05:28:26;17.70;45.90
37158;DHT22;23050;51.776;22.638;2022-09-03T05:31:04;18.30;41.30
37158;DHT22;23050;51.776;22.638;2022-09-03T05:33:35;18.60;32.70
37158;DHT22;23050;51.776;22.638;2022-09-03T05:36:03;19.00;28.50
37158;DHT22;23050;51.776;22.638;2022-09-03T05:38:28;18.80;26.80
37158;DHT22;23050;51.776;22.638;2022-09-03T05:40:58;19.20;26.00
37158;DHT22;23050;51.776;22.638;2022-09-03T05:43:24;19.60;24.40
37158;DHT22;23050;51.776;22.638;2022-09-03T05:45:49;19.70;22.20
37158;DHT22;23050;51.776;22.638;2022-09-03T05:48:15;20.20;20.50
37158;DHT22;23050;51.776;22.638;2022-09-03T05:50:41;20.90;16.90
37158;DHT22;23050;51.776;22.638;2022-09-03T05:53:06;21.30;14.70
37158;DHT22;23050;51.776;22.638;2022-09-03T05:55:32;21.00;12.80
37158;DHT22;23050;51.776;22.638;2022-09-03T05:57:58;21.40;13.10
37158;DHT22;23050;51.776;22.638;2022-09-03T06:00:24;21.20;12.10
37158;DHT22;23050;51.776;22.638;2022-09-03T06:02:52;21.90;11.30
37158;DHT22;23050;51.776;22.638;2022-09-03T06:05:19;22.40;10.20
37158;DHT22;23050;51.776;22.638;2022-09-03T06:07:45;22.20;9.00
37158;DHT22;23050;51.776;22.638;2022-09-03T06:10:14;22.30;8.90
37158;DHT22;23050;51.776;22.638;2022-09-03T06:12:41;22.40;8.20
37158;DHT22;23050;51.776;22.638;2022-09-03T06:15:09;22.80;7.80
37158;DHT22;23050;51.776;22.638;2022-09-03T06:17:37;23.00;7.20
37158;DHT22;23050;51.776;22.638;2022-09-03T06:20:03;23.50;6.00
37158;DHT22;23050;51.776;22.638;2022-09-03T06:22:28;23.70;5.10
37158;DHT22;23050;51.776;22.638;2022-09-03T06:24:55;23.80;4.20
37158;DHT22;23050;51.776;22.638;2022-09-03T06:27:21;23.90;1.90
37158;DHT22;23050;51.776;22.638;2022-09-03T06:29:47;24.40;1.10
37158;DHT22;23050;51.776;22.638;2022-09-03T06:32:12;24.50;1.00
37158;DHT22;23050;51.776;22.638;2022-09-03T06:34:38;24.10;1.00
37158;DHT22;23050;51.776;22.638;2022-09-03T06:37:04;24.20;1.00
37158;DHT22;23050;51.776;22.638;2022-09-03T06:39:29;24.00;1.00
37158;DHT22;23050;51.776;22.638;2022-09-03T06:41:55;24.90;1.00
37158;DHT22;23050;51.776;22.638;2022-09-03T06:44:21;25.10;1.00
37158;DHT22;23050;51.776;22.638;2022-09-03T06:46:47;24.60;1.00
37158;DHT22;23050;51.776;22.638;2022-09-03T06:49:13;24.80;1.00
37158;DHT22;23050;51.776;22.638;2022-09-03T06:51:39;24.70;1.00
37158;DHT22;23050;51.776;22.638;2022-09-03T06:54:09;24.90;1.00
37158;DHT22;23050;51.776;22.638;2022-09-03T06:56:37;25.10;1.00
37158;DHT22;23050;51.776;22.638;2022-09-03T06:59:08;25.30;1.00
37158;DHT22;23050;51.776;22.638;2022-09-03T07:01:35;25.60;1.00
37158;DHT22;23050;51.776;22.638;2022-09-03T07:04:06;26.00;1.00
37158;DHT22;23050;51.776;22.638;2022-09-03T07:06:34;26.00;1.00
37158;DHT22;23050;51.776;22.638;2022-09-03T07:09:06;25.70;1.00
37158;DHT22;23050;51.776;22.638;2022-09-03T07:11:33;25.80;1.00
37158;DHT22;23050;51.776;22.638;2022-09-03T07:14:00;25.90;1.00
37158;DHT22;23050;51.776;22.638;2022-09-03T07:16:29;26.80;1.00
37158;DHT22;23050;51.776;22.638;2022-09-03T07:18:55;27.20;1.00
37158;DHT22;23050;51.776;22.638;2022-09-03T07:21:26;27.80;1.00
37158;DHT22;23050;51.776;22.638;2022-09-03T07:23:53;28.10;1.00
37158;DHT22;23050;51.776;22.638;2022-09-03T07:26:22;28.10;1.00
37158;DHT22;23050;51.776;22.638;2022-09-03T07:28:48;28.40;1.00
37158;DHT22;23050;51.776;22.638;2022-09-03T07:31:30;28.00;1.00
37158;DHT22;23050;51.776;22.638;2022-09-03T07:33:57;27.30;1.00
37158;DHT22;23050;51.776;22.638;2022-09-03T07:36:25;27.40;1.00
37158;DHT22;23050;51.776;22.638;2022-09-03T07:38:54;27.20;1.00
37158;DHT22;23050;51.776;22.638;2022-09-03T07:41:20;28.00;1.00
37158;DHT22;23050;51.776;22.638;2022-09-03T07:43:47;28.50;1.00
37158;DHT22;23050;51.776;22.638;2022-09-03T07:46:17;27.40;1.00
37158;DHT22;23050;51.776;22.638;2022-09-03T07:48:57;27.10;1.00
37158;DHT22;23050;51.776;22.638;2022-09-03T07:51:25;27.90;1.00
37158;DHT22;23050;51.776;22.638;2022-09-03T07:53:54;28.60;1.00
37158;DHT22;23050;51.776;22.638;2022-09-03T07:56:20;28.40;1.00
37158;DHT22;23050;51.776;22.638;2022-09-03T07:58:46;27.90;1.00
37158;DHT22;23050;51.776;22.638;2022-09-03T08:01:15;26.50;1.00
37158;DHT22;23050;51.776;22.638;2022-09-03T08:03:45;26.00;1.00
37158;DHT22;23050;51.776;22.638;2022-09-03T08:06:13;26.60;1.00
37158;DHT22;23050;51.776;22.638;2022-09-03T08:08:39;27.60;1.00
37158;DHT22;23050;51.776;22.638;2022-09-03T08:11:10;28.00;1.00
37158;DHT22;23050;51.776;22.638;2022-09-03T08:13:57;28.70;1.00
37158;DHT22;23050;51.776;22.638;2022-09-03T08:16:30;28.80;1.00
37158;DHT22;23050;51.776;22.638;2022-09-03T08:18:56;28.90;1.00
37158;DHT22;23050;51.776;22.638;2022-09-03T08:21:23;28.80;1.00
37158;DHT22;23050;51.776;22.638;2022-09-03T08:23:51;29.20;1.00
37158;DHT22;23050;51.776;22.638;2022-09-03T08:26:18;28.50;1.00
37158;DHT22;23050;51.776;22.638;2022-09-03T08:28:44;28.90;1.00
37158;DHT22;23050;51.776;22.638;2022-09-03T08:31:15;27.70;1.00
37158;DHT22;23050;51.776;22.638;2022-09-03T08:33:45;26.90;1.00
37158;DHT22;23050;51.776;22.638;2022-09-03T08:36:23;26.50;1.00
37158;DHT22;23050;51.776;22.638;2022-09-03T08:38:50;27.10;1.00
37158;DHT22;23050;51.776;22.638;2022-09-03T08:55:10;26.70;1.00
37158;DHT22;23050;51.776;22.638;2022-09-03T08:57:46;27.60;1.00
37158;DHT22;23050;51.776;22.638;2022-09-03T09:00:13;27.30;1.00
37158;DHT22;23050;51.776;22.638;2022-09-03T09:03:06;27.40;1.00
37158;DHT22;23050;51.776;22.638;2022-09-03T09:05:59;27.70;1.00
37158;DHT22;23050;51.776;22.638;2022-09-03T09:11:48;25.40;1.00
37158;DHT22;23050;51.776;22.638;2022-09-03T09:17:03;26.80;1.00
37158;DHT22;23050;51.776;22.638;2022-09-03T09:19:42;26.50;1.00
37158;DHT22;23050;51.776;22.638;2022-09-03T09:22:20;26.70;1.00
37158;DHT22;23050;51.776;22.638;2022-09-03T09:24:49;26.50;1.00
37158;DHT22;23050;51.776;22.638;2022-09-03T09:27:17;26.90;1.00
37158;DHT22;23050;51.776;22.638;2022-09-03T09:29:49;27.30;1.00
37158;DHT22;23050;51.776;22.638;2022-09-03T09:32:16;26.80;1.00
37158;DHT22;23050;51.776;22.638;2022-09-03T09:34:43;26.60;1.00
37158;DHT22;23050;51.776;22.638;2022-09-03T09:37:11;26.20;1.00
37158;DHT22;23050;51.776;22.638;2022-09-03T09:39:39;26.90;1.00
37158;DHT22;23050;51.776;22.638;2022-09-03T09:44:37;26.40;1.00
37158;DHT22;23050;51.776;22.638;2022-09-03T09:47:10;25.80;1.00
37158;DHT22;23050;51.776;22.638;2022-09-03T09:49:50;26.50;1.00
37158;DHT22;23050;51.776;22.638;2022-09-03T09:52:16;26.60;1.00
37158;DHT22;23050;51.776;22.638;2022-09-03T09:54:43;26.50;1.00
37158;DHT22;23050;51.776;22.638;2022-09-03T09:57:21;26.90;1.00
37158;DHT22;23050;51.776;22.638;2022-09-03T09:59:47;26.60;1.00
37158;DHT22;23050;51.776;22.638;2022-09-03T10:02:22;26.80;1.00
37158;DHT22;23050;51.776;22.638;2022-09-03T10:04:50;26.60;1.00
37158;DHT22;23050;51.776;22.638;2022-09-03T10:07:28;26.80;1.00
37158;DHT22;23050;51.776;22.638;2022-09-03T10:10:01;27.10;1.00
37158;DHT22;23050;51.776;22.638;2022-09-03T10:12:31;27.20;1.00
37158;DHT22;23050;51.776;22.638;2022-09-03T10:23:24;27.10;1.00
37158;DHT22;23050;51.776;22.638;2022-09-03T10:26:13;27.30;1.00
37158;DHT22;23050;51.776;22.638;2022-09-03T10:28:41;26.30;1.00
37158;DHT22;23050;51.776;22.638;2022-09-03T10:33:46;26.40;1.00
37158;DHT22;23050;51.776;22.638;2022-09-03T10:36:18;26.70;1.00
37158;DHT22;23050;51.776;22.638;2022-09-03T10:38:57;26.40;1.00
37158;DHT22;23050;51.776;22.638;2022-09-03T10:41:50;25.70;1.00
37158;DHT22;23050;51.776;22.638;2022-09-03T10:47:15;26.70;1.00
37158;DHT22;23050;51.776;22.638;2022-09-03T10:56:01;26.70;1.00
37158;DHT22;23050;51.776;22.638;2022-09-03T11:01:17;26.40;1.00
37158;DHT22;23050;51.776;22.638;2022-09-03T11:06:40;25.70;1.00
37158;DHT22;23050;51.776;22.638;2022-09-03T11:09:18;25.80;1.00
37158;DHT22;23050;51.776;22.638;2022-09-03T11:12:06;25.90;1.00
37158;DHT22;23050;51.776;22.638;2022-09-03T11:14:42;25.80;1.00
37158;DHT22;23050;51.776;22.638;2022-09-03T11:17:19;26.00;1.00
37158;DHT22;23050;51.776;22.638;2022-09-03T11:20:13;26.10;1.00
37158;DHT22;23050;51.776;22.638;2022-09-03T11:22:42;26.40;1.00
37158;DHT22;23050;51.776;22.638;2022-09-03T11:25:11;26.00;1.00
37158;DHT22;23050;51.776;22.638;2022-09-03T11:30:12;25.60;1.00
37158;DHT22;23050;51.776;22.638;2022-09-03T11:32:52;25.70;1.00
37158;DHT22;23050;51.776;22.638;2022-09-03T11:35:38;27.30;1.00
37158;DHT22;23050;51.776;22.638;2022-09-03T11:41:10;25.90;1.00
37158;DHT22;23050;51.776;22.638;2022-09-03T11:43:38;25.10;1.00
37158;DHT22;23050;51.776;22.638;2022-09-03T11:48:48;24.90;1.00
37158;DHT22;23050;51.776;22.638;2022-09-03T11:53:58;25.40;1.00
37158;DHT22;23050;51.776;22.638;2022-09-03T11:56:24;25.50;1.00
37158;DHT22;23050;51.776;22.638;2022-09-03T12:01:41;26.00;1.00
37158;DHT22;23050;51.776;22.638;2022-09-03T12:04:13;25.50;1.00
37158;DHT22;23050;51.776;22.638;2022-09-03T12:15:52;26.00;1.00
37158;DHT22;23050;51.776;22.638;2022-09-03T12:18:26;26.00;1.00
37158;DHT22;23050;51.776;22.638;2022-09-03T12:23:33;26.10;1.00
37158;DHT22;23050;51.776;22.638;2022-09-03T12:26:08;25.80;1.00
37158;DHT22;23050;51.776;22.638;2022-09-03T12:28:39;25.60;1.00
37158;DHT22;23050;51.776;22.638;2022-09-03T12:31:16;24.80;1.00
37158;DHT22;23050;51.776;22.638;2022-09-03T12:33:55;24.00;1.00
37158;DHT22;23050;51.776;22.638;2022-09-03T12:36:23;24.10;1.00
37158;DHT22;23050;51.776;22.638;2022-09-03T12:38:50;24.80;1.00
37158;DHT22;23050;51.776;22.638;2022-09-03T12:41:21;25.60;1.00
37158;DHT22;23050;51.776;22.638;2022-09-03T12:44:04;25.70;1.00
37158;DHT22;23050;51.776;22.638;2022-09-03T12:46:31;25.50;1.00
37158;DHT22;23050;51.776;22.638;2022-09-03T12:49:02;24.90;1.00
37158;DHT22;23050;51.776;22.638;2022-09-03T12:51:35;24.80;1.00
37158;DHT22;23050;51.776;22.638;2022-09-03T12:54:02;25.10;1.00
37158;DHT22;23050;51.776;22.638;2022-09-03T12:56:30;24.80;1.00
37158;DHT22;23050;51.776;22.638;2022-09-03T12:59:04;24.80;1.00
37158;DHT22;23050;51.776;22.638;2022-09-03T13:01:36;25.00;1.00
37158;DHT22;23050;51.776;22.638;2022-09-03T13:04:09;24.60;1.00
37158;DHT22;23050;51.776;22.638;2022-09-03T13:07:18;25.30;1.00
37158;DHT22;23050;51.776;22.638;2022-09-03T13:09:45;25.60;1.00
37158;DHT22;23050;51.776;22.638;2022-09-03T13:12:30;25.10;1.00
37158;DHT22;23050;51.776;22.638;2022-09-03T13:14:56;25.00;1.00
37158;DHT22;23050;51.776;22.638;2022-09-03T13:17:45;25.00;1.00
37158;DHT22;23050;51.776;22.638;2022-09-03T13:23:08;25.20;1.00
37158;DHT22;23050;51.776;22.638;2022-09-03T13:32:25;26.20;1.00
37158;DHT22;23050;51.776;22.638;2022-09-03T13:34:53;25.90;1.00
37158;DHT22;23050;51.776;22.638;2022-09-03T13:37:37;26.40;1.00
37158;DHT22;23050;51.776;22.638;2022-09-03T13:40:34;26.30;1.00
37158;DHT22;23050;51.776;22.638;2022-09-03T13:43:09;25.70;1.00
37158;DHT22;23050;51.776;22.638;2022-09-03T13:46:07;25.80;1.00
37158;DHT22;23050;51.776;22.638;2022-09-03T13:48:39;24.90;1.00
37158;DHT22;23050;51.776;22.638;2022-09-03T13:54:13;24.90;1.00
37158;DHT22;23050;51.776;22.638;2022-09-03T13:57:16;24.50;1.00
37158;DHT22;23050;51.776;22.638;2022-09-03T14:00:11;24.10;1.00
37158;DHT22;23050;51.776;22.638;2022-09-03T14:13:54;26.10;1.00
37158;DHT22;23050;51.776;22.638;2022-09-03T14:16:46;26.00;1.00
37158;DHT22;23050;51.776;22.638;2022-09-03T14:22:13;25.40;1.00
37158;DHT22;23050;51.776;22.638;2022-09-03T14:25:02;24.90;1.00
37158;DHT22;23050;51.776;22.638;2022-09-03T14:27:31;26.30;1.00
37158;DHT22;23050;51.776;22.638;2022-09-03T14:30:05;26.30;1.00
37158;DHT22;23050;51.776;22.638;2022-09-03T14:32:51;26.00;1.00
37158;DHT22;23050;51.776;22.638;2022-09-03T14:40:44;25.40;1.00
37158;DHT22;23050;51.776;22.638;2022-09-03T14:46:17;25.60;1.00
37158;DHT22;23050;51.776;22.638;2022-09-03T14:54:43;25.60;1.00
37158;DHT22;23050;51.776;22.638;2022-09-03T15:10:56;25.50;1.00
37158;DHT22;23050;51.776;22.638;2022-09-03T15:13:26;25.30;1.00
37158;DHT22;23050;51.776;22.638;2022-09-03T15:24:40;24.30;1.00
37158;DHT22;23050;51.776;22.638;2022-09-03T15:37:43;23.60;1.00
37158;DHT22;23050;51.776;22.638;2022-09-03T15:43:07;23.20;1.00
37158;DHT22;23050;51.776;22.638;2022-09-03T15:45:40;23.20;1.00
37158;DHT22;23050;51.776;22.638;2022-09-03T15:51:04;23.00;1.00
37158;DHT22;23050;51.776;22.638;2022-09-03T15:53:40;22.60;1.00
37158;DHT22;23050;51.776;22.638;2022-09-03T16:02:04;21.50;1.00
37158;DHT22;23050;51.776;22.638;2022-09-03T16:07:57;20.90;1.00
37158;DHT22;23050;51.776;22.638;2022-09-03T16:10:57;20.70;1.00
37158;DHT22;23050;51.776;22.638;2022-09-03T16:14:05;20.30;1.00
37158;DHT22;23050;51.776;22.638;2022-09-03T16:22:11;19.60;1.00
37158;DHT22;23050;51.776;22.638;2022-09-03T16:24:52;19.50;1.00
37158;DHT22;23050;51.776;22.638;2022-09-03T16:30:11;19.30;1.00
37158;DHT22;23050;51.776;22.638;2022-09-03T16:40:56;18.70;1.00
37158;DHT22;23050;51.776;22.638;2022-09-03T16:46:34;18.70;1.00
37158;DHT22;23050;51.776;22.638;2022-09-03T17:11:31;17.40;5.30
37158;DHT22;23050;51.776;22.638;2022-09-03T17:14:24;17.30;5.20
37158;DHT22;23050;51.776;22.638;2022-09-03T17:22:37;16.70;6.50
37158;DHT22;23050;51.776;22.638;2022-09-03T17:30:48;16.30;9.90
37158;DHT22;23050;51.776;22.638;2022-09-03T17:36:17;16.00;12.80
37158;DHT22;23050;51.776;22.638;2022-09-03T17:41:54;15.80;15.80
37158;DHT22;23050;51.776;22.638;2022-09-03T17:44:45;15.60;18.20
37158;DHT22;23050;51.776;22.638;2022-09-03T17:49:57;15.30;23.50
37158;DHT22;23050;51.776;22.638;2022-09-03T17:52:42;15.20;27.70
37158;DHT22;23050;51.776;22.638;2022-09-03T17:55:41;15.00;32.60
37158;DHT22;23050;51.776;22.638;2022-09-03T17:58:12;15.00;37.30
37158;DHT22;23050;51.776;22.638;2022-09-03T18:03:38;14.80;49.60
37158;DHT22;23050;51.776;22.638;2022-09-03T18:06:09;14.70;49.20
37158;DHT22;23050;51.776;22.638;2022-09-03T18:11:37;14.50;58.00
37158;DHT22;23050;51.776;22.638;2022-09-03T18:14:23;14.60;75.30
37158;DHT22;23050;51.776;22.638;2022-09-03T18:17:08;14.20;75.90
37158;DHT22;23050;51.776;22.638;2022-09-03T18:19:53;14.10;77.10
37158;DHT22;23050;51.776;22.638;2022-09-03T18:23:10;14.00;81.30
37158;DHT22;23050;51.776;22.638;2022-09-03T18:26:02;13.90;90.90
37158;DHT22;23050;51.776;22.638;2022-09-03T18:28:54;13.80;91.70
37158;DHT22;23050;51.776;22.638;2022-09-03T18:31:39;13.70;90.20
37158;DHT22;23050;51.776;22.638;2022-09-03T18:34:32;13.60;88.00
37158;DHT22;23050;51.776;22.638;2022-09-03T18:37:26;13.60;89.00
37158;DHT22;23050;51.776;22.638;2022-09-03T18:40:15;13.50;89.10
37158;DHT22;23050;51.776;22.638;2022-09-03T18:46:13;13.40;93.50
37158;DHT22;23050;51.776;22.638;2022-09-03T18:52:14;13.20;93.70
37158;DHT22;23050;51.776;22.638;2022-09-03T18:55:29;13.10;94.30
37158;DHT22;23050;51.776;22.638;2022-09-03T18:58:55;13.00;97.70
37158;DHT22;23050;51.776;22.638;2022-09-03T19:01:43;13.00;99.90
37158;DHT22;23050;51.776;22.638;2022-09-03T19:08:23;12.90;99.90
37158;DHT22;23050;51.776;22.638;2022-09-03T19:13:37;12.70;99.90
37158;DHT22;23050;51.776;22.638;2022-09-03T19:16:51;12.70;99.90
37158;DHT22;23050;51.776;22.638;2022-09-03T19:19:48;12.60;99.90
37158;DHT22;23050;51.776;22.638;2022-09-03T19:22:40;12.50;99.90
37158;DHT22;23050;51.776;22.638;2022-09-03T19:25:27;12.50;99.90
37158;DHT22;23050;51.776;22.638;2022-09-03T19:34:53;12.30;99.90
37158;DHT22;23050;51.776;22.638;2022-09-03T19:37:54;12.20;99.90
37158;DHT22;23050;51.776;22.638;2022-09-03T19:44:07;11.90;99.90
37158;DHT22;23050;51.776;22.638;2022-09-03T19:47:01;11.90;99.90
37158;DHT22;23050;51.776;22.638;2022-09-03T19:55:32;11.80;99.90
37158;DHT22;23050;51.776;22.638;2022-09-03T19:58:22;11.80;99.90
37158;DHT22;23050;51.776;22.638;2022-09-03T20:01:08;11.80;99.90
37158;DHT22;23050;51.776;22.638;2022-09-03T20:03:55;11.70;99.90
37158;DHT22;23050;51.776;22.638;2022-09-03T20:06:41;11.70;99.90
37158;DHT22;23050;51.776;22.638;2022-09-03T20:09:29;11.60;99.90
37158;DHT22;23050;51.776;22.638;2022-09-03T20:12:16;11.60;99.90
37158;DHT22;23050;51.776;22.638;2022-09-03T20:14:44;11.50;99.90
37158;DHT22;23050;51.776;22.638;2022-09-03T20:17:31;11.40;99.90
37158;DHT22;23050;51.776;22.638;2022-09-03T20:22:55;11.30;99.90
37158;DHT22;23050;51.776;22.638;2022-09-03T20:28:27;11.20;99.90
37158;DHT22;23050;51.776;22.638;2022-09-03T20:44:49;12.00;99.90
37158;DHT22;23050;51.776;22.638;2022-09-03T20:50:30;11.10;99.90
37158;DHT22;23050;51.776;22.638;2022-09-03T21:14:15;10.50;99.90
37158;DHT22;23050;51.776;22.638;2022-09-03T21:24:51;11.60;99.90
37158;DHT22;23050;51.776;22.638;2022-09-03T21:27:25;10.30;99.90
37158;DHT22;23050;51.776;22.638;2022-09-03T21:30:05;11.90;99.90
37158;DHT22;23050;51.776;22.638;2022-09-03T21:32:54;10.20;99.90
37158;DHT22;23050;51.776;22.638;2022-09-03T21:38:01;10.20;99.90
37158;DHT22;23050;51.776;22.638;2022-09-03T21:40:28;10.10;99.90
37158;DHT22;23050;51.776;22.638;2022-09-03T21:43:09;10.10;99.90
37158;DHT22;23050;51.776;22.638;2022-09-03T21:46:02;10.00;99.90
37158;DHT22;23050;51.776;22.638;2022-09-03T21:48:36;10.00;99.90
37158;DHT22;23050;51.776;22.638;2022-09-03T21:51:13;11.40;99.90
37158;DHT22;23050;51.776;22.638;2022-09-03T21:53:47;9.80;99.90
37158;DHT22;23050;51.776;22.638;2022-09-03T22:04:20;9.60;99.90
37158;DHT22;23050;51.776;22.638;2022-09-03T22:09:45;11.20;99.90
37158;DHT22;23050;51.776;22.638;2022-09-03T22:12:19;9.50;99.90
37158;DHT22;23050;51.776;22.638;2022-09-03T22:14:50;9.50;99.90
37158;DHT22;23050;51.776;22.638;2022-09-03T22:19:46;9.50;99.90
37158;DHT22;23050;51.776;22.638;2022-09-03T22:22:27;11.10;99.90
37158;DHT22;23050;51.776;22.638;2022-09-03T22:25:14;10.30;99.90
37158;DHT22;23050;51.776;22.638;2022-09-03T22:28:10;9.40;99.90
37158;DHT22;23050;51.776;22.638;2022-09-03T22:31:17;9.50;99.90
37158;DHT22;23050;51.776;22.638;2022-09-03T22:33:50;9.40;99.90
37158;DHT22;23050;51.776;22.638;2022-09-03T22:36:30;9.30;99.90